createdAt,value
2023-12-26T00:00:44.269Z,571.00
2023-12-26T00:01:44.354Z,571.00
2023-12-26T00:02:44.370Z,572.00
2023-12-26T00:03:44.599Z,574.00
2023-12-26T00:04:44.465Z,576.00
2023-12-26T00:05:44.642Z,574.00
2023-12-26T00:07:48.246Z,581.00
2023-12-26T00:08:48.288Z,584.00
2023-12-26T00:09:48.207Z,582.00
2023-12-26T00:10:48.262Z,582.00
2023-12-26T00:11:48.297Z,585.00
2023-12-26T00:12:48.277Z,584.00
2023-12-26T00:13:48.289Z,586.00
2023-12-26T00:14:48.330Z,584.00
2023-12-26T00:15:48.232Z,584.00
2023-12-26T00:16:48.248Z,586.00
2023-12-26T00:17:48.341Z,585.00
2023-12-26T00:18:48.410Z,582.00
2023-12-26T00:19:48.301Z,583.00
2023-12-26T00:20:48.291Z,581.00
2023-12-26T00:21:48.289Z,578.00
2023-12-26T00:22:48.256Z,577.00
2023-12-26T00:23:48.317Z,576.00
2023-12-26T00:24:48.302Z,577.00
2023-12-26T00:25:48.271Z,578.00
2023-12-26T00:26:48.365Z,576.00
2023-12-26T00:27:48.433Z,576.00
2023-12-26T00:28:48.488Z,577.00
2023-12-26T00:29:48.583Z,577.00
2023-12-26T00:30:48.651Z,577.00
2023-12-26T00:31:48.719Z,579.00
2023-12-26T00:32:48.881Z,578.00
2023-12-26T00:33:48.891Z,579.00
2023-12-26T00:34:48.928Z,578.00
2023-12-26T00:35:49.008Z,579.00
2023-12-26T00:36:49.000Z,576.00
2023-12-26T00:37:49.104Z,576.00
2023-12-26T00:38:49.240Z,575.00
2023-12-26T00:39:49.225Z,574.00
2023-12-26T00:40:49.295Z,572.00
2023-12-26T00:41:49.375Z,573.00
2023-12-26T00:42:49.420Z,573.00
2023-12-26T00:43:49.517Z,576.00
2023-12-26T00:44:49.571Z,578.00
2023-12-26T00:45:49.648Z,580.00
2023-12-26T00:46:49.679Z,583.00
2023-12-26T00:47:49.890Z,583.00
2023-12-26T00:48:50.057Z,585.00
2023-12-26T00:49:49.959Z,583.00
2023-12-26T00:50:50.002Z,584.00
2023-12-26T00:51:50.044Z,584.00
2023-12-26T00:52:50.092Z,583.00
2023-12-26T00:53:50.253Z,581.00
2023-12-26T00:54:50.260Z,579.00
2023-12-26T00:55:50.320Z,578.00
2023-12-26T00:56:50.396Z,577.00
2023-12-26T00:57:50.470Z,577.00
2023-12-26T00:58:50.558Z,579.00
2023-12-26T00:59:50.592Z,580.00
2023-12-26T01:00:50.689Z,579.00
2023-12-26T01:01:50.726Z,575.00
2023-12-26T01:02:50.806Z,578.00
2023-12-26T01:03:50.914Z,578.00
2023-12-26T01:04:51.001Z,579.00
2023-12-26T01:05:51.069Z,578.00
2023-12-26T01:06:51.041Z,578.00
2023-12-26T01:07:51.119Z,579.00
2023-12-26T01:08:51.397Z,581.00
2023-12-26T01:09:51.246Z,582.00
2023-12-26T01:10:51.358Z,582.00
2023-12-26T01:11:51.413Z,581.00
2023-12-26T01:12:51.464Z,583.00
2023-12-26T01:13:51.574Z,584.00
2023-12-26T01:14:51.634Z,583.00
2023-12-26T01:15:51.687Z,582.00
2023-12-26T01:16:51.734Z,580.00
2023-12-26T01:17:51.894Z,579.00
2023-12-26T01:18:51.965Z,576.00
2023-12-26T01:19:51.967Z,577.00
2023-12-26T01:20:52.060Z,578.00
2023-12-26T01:21:52.092Z,577.00
2023-12-26T01:22:52.198Z,578.00
2023-12-26T01:23:52.513Z,576.00
2023-12-26T01:24:52.329Z,576.00
2023-12-26T01:25:52.374Z,578.00
2023-12-26T01:26:52.448Z,575.00
2023-12-26T01:27:52.537Z,573.00
2023-12-26T01:28:52.597Z,572.00
2023-12-26T01:29:52.652Z,569.00
2023-12-26T01:30:52.760Z,568.00
2023-12-26T01:31:52.783Z,566.00
2023-12-26T01:32:53.179Z,566.00
2023-12-26T01:33:53.055Z,565.00
2023-12-26T01:34:53.002Z,565.00
2023-12-26T01:35:53.119Z,568.00
2023-12-26T01:36:53.180Z,568.00
2023-12-26T01:37:53.184Z,568.00
2023-12-26T01:38:53.341Z,570.00
2023-12-26T01:39:53.326Z,570.00
2023-12-26T01:40:53.417Z,571.00
2023-12-26T01:41:53.458Z,571.00
2023-12-26T01:42:53.668Z,573.00
2023-12-26T01:43:53.569Z,572.00
2023-12-26T01:44:53.670Z,573.00
2023-12-26T01:45:53.693Z,571.00
2023-12-26T01:46:53.817Z,571.00
2023-12-26T01:47:53.958Z,571.00
2023-12-26T01:48:54.023Z,572.00
2023-12-26T01:49:54.040Z,571.00
2023-12-26T01:50:54.023Z,572.00
2023-12-26T01:51:54.147Z,570.00
2023-12-26T01:52:54.374Z,569.00
2023-12-26T01:53:54.240Z,568.00
2023-12-26T01:54:54.271Z,564.00
2023-12-26T01:55:54.286Z,563.00
2023-12-26T01:56:54.378Z,562.00
2023-12-26T01:57:54.453Z,562.00
2023-12-26T01:58:54.490Z,561.00
2023-12-26T01:59:54.621Z,559.00
2023-12-26T02:00:54.661Z,559.00
2023-12-26T02:01:54.682Z,559.00
2023-12-26T02:02:55.179Z,559.00
2023-12-26T02:03:54.803Z,560.00
2023-12-26T02:04:54.925Z,561.00
2023-12-26T02:05:54.941Z,562.00
2023-12-26T02:06:55.031Z,564.00
2023-12-26T02:07:55.079Z,564.00
2023-12-26T02:08:55.180Z,564.00
2023-12-26T02:09:55.179Z,565.00
2023-12-26T02:10:55.264Z,566.00
2023-12-26T02:11:55.362Z,564.00
2023-12-26T02:12:55.618Z,565.00
2023-12-26T02:13:55.423Z,564.00
2023-12-26T02:14:55.553Z,562.00
2023-12-26T02:15:55.532Z,560.00
2023-12-26T02:16:55.611Z,559.00
2023-12-26T02:17:55.887Z,563.00
2023-12-26T02:18:55.952Z,566.00
2023-12-26T02:19:55.821Z,566.00
2023-12-26T02:20:55.878Z,563.00
2023-12-26T02:21:55.958Z,562.00
2023-12-26T02:22:56.158Z,560.00
2023-12-26T02:23:56.163Z,559.00
2023-12-26T02:24:56.117Z,560.00
2023-12-26T02:25:56.177Z,561.00
2023-12-26T02:26:56.238Z,558.00
2023-12-26T02:27:56.289Z,557.00
2023-12-26T02:28:56.332Z,557.00
2023-12-26T02:29:56.475Z,557.00
2023-12-26T02:30:56.469Z,560.00
2023-12-26T02:31:56.536Z,559.00
2023-12-26T02:32:56.868Z,559.00
2023-12-26T02:33:56.730Z,560.00
2023-12-26T02:34:56.870Z,562.00
2023-12-26T02:35:56.773Z,561.00
2023-12-26T02:36:56.798Z,561.00
2023-12-26T02:37:56.829Z,560.00
2023-12-26T02:38:56.969Z,562.00
2023-12-26T02:39:56.958Z,563.00
2023-12-26T02:40:56.993Z,564.00
2023-12-26T02:41:57.093Z,563.00
2023-12-26T02:42:57.293Z,565.00
2023-12-26T02:43:57.243Z,564.00
2023-12-26T02:44:57.258Z,563.00
2023-12-26T02:45:57.272Z,560.00
2023-12-26T02:46:57.337Z,559.00
2023-12-26T02:47:57.560Z,557.00
2023-12-26T02:48:57.625Z,558.00
2023-12-26T02:49:57.599Z,557.00
2023-12-26T02:50:57.650Z,557.00
2023-12-26T02:51:57.696Z,558.00
2023-12-26T02:52:57.968Z,562.00
2023-12-26T02:53:57.893Z,564.00
2023-12-26T02:54:57.890Z,566.00
2023-12-26T02:55:57.930Z,566.00
2023-12-26T02:56:58.064Z,564.00
2023-12-26T02:57:58.081Z,563.00
2023-12-26T02:58:58.179Z,562.00
2023-12-26T02:59:58.220Z,561.00
2023-12-26T03:00:58.305Z,562.00
2023-12-26T03:01:58.277Z,565.00
2023-12-26T03:02:58.858Z,564.00
2023-12-26T03:03:58.544Z,562.00
2023-12-26T03:04:58.470Z,562.00
2023-12-26T03:05:58.708Z,563.00
2023-12-26T03:06:58.641Z,563.00
2023-12-26T03:07:58.664Z,563.00
2023-12-26T03:08:58.812Z,560.00
2023-12-26T03:09:58.780Z,561.00
2023-12-26T03:10:58.866Z,560.00
2023-12-26T03:11:59.009Z,560.00
2023-12-26T03:12:58.969Z,561.00
2023-12-26T03:13:59.058Z,559.00
2023-12-26T03:14:59.159Z,559.00
2023-12-26T03:15:59.166Z,558.00
2023-12-26T03:16:59.185Z,556.00
2023-12-26T03:17:59.430Z,558.00
2023-12-26T03:18:59.471Z,558.00
2023-12-26T03:19:59.372Z,559.00
2023-12-26T03:20:59.434Z,560.00
2023-12-26T03:21:59.476Z,561.00
2023-12-26T03:22:59.546Z,560.00
2023-12-26T03:23:59.595Z,559.00
2023-12-26T03:24:59.611Z,559.00
2023-12-26T03:25:59.721Z,557.00
2023-12-26T03:26:59.769Z,558.00
2023-12-26T03:27:59.897Z,559.00
2023-12-26T03:28:59.863Z,560.00
2023-12-26T03:29:59.983Z,561.00
2023-12-26T03:31:00.044Z,560.00
2023-12-26T03:32:00.081Z,562.00
2023-12-26T03:33:00.664Z,562.00
2023-12-26T03:34:00.280Z,564.00
2023-12-26T03:35:00.359Z,567.00
2023-12-26T03:36:00.340Z,568.00
2023-12-26T03:37:00.373Z,567.00
2023-12-26T03:38:00.451Z,566.00
2023-12-26T03:39:00.604Z,566.00
2023-12-26T03:40:00.537Z,563.00
2023-12-26T03:41:00.621Z,560.00
2023-12-26T03:42:00.690Z,558.00
2023-12-26T03:43:00.727Z,556.00
2023-12-26T03:44:00.782Z,555.00
2023-12-26T03:45:00.926Z,556.00
2023-12-26T03:46:01.089Z,558.00
2023-12-26T03:47:01.075Z,558.00
2023-12-26T03:48:01.352Z,559.00
2023-12-26T03:49:01.209Z,560.00
2023-12-26T03:50:01.211Z,562.00
2023-12-26T03:51:01.225Z,559.00
2023-12-26T03:52:01.317Z,558.00
2023-12-26T03:53:01.363Z,556.00
2023-12-26T03:54:01.450Z,555.00
2023-12-26T03:55:01.435Z,554.00
2023-12-26T03:56:01.549Z,555.00
2023-12-26T03:57:01.613Z,556.00
2023-12-26T03:58:01.654Z,557.00
2023-12-26T03:59:01.960Z,557.00
2023-12-26T04:00:01.820Z,560.00
2023-12-26T04:01:01.893Z,562.00
2023-12-26T04:02:01.944Z,561.00
2023-12-26T04:03:02.242Z,560.00
2023-12-26T04:04:02.252Z,559.00
2023-12-26T04:05:02.176Z,561.00
2023-12-26T04:06:02.200Z,562.00
2023-12-26T04:07:02.224Z,563.00
2023-12-26T04:08:02.255Z,565.00
2023-12-26T04:09:02.356Z,565.00
2023-12-26T04:10:02.410Z,564.00
2023-12-26T04:11:02.474Z,563.00
2023-12-26T04:12:02.559Z,560.00
2023-12-26T04:13:02.578Z,559.00
2023-12-26T04:14:02.641Z,560.00
2023-12-26T04:15:02.676Z,562.00
2023-12-26T04:16:02.828Z,563.00
2023-12-26T04:17:02.807Z,565.00
2023-12-26T04:18:03.025Z,564.00
2023-12-26T04:19:03.174Z,565.00
2023-12-26T04:20:03.015Z,565.00
2023-12-26T04:21:03.070Z,564.00
2023-12-26T04:22:03.077Z,564.00
2023-12-26T04:23:03.138Z,564.00
2023-12-26T04:24:03.283Z,563.00
2023-12-26T04:25:03.239Z,562.00
2023-12-26T04:26:03.304Z,562.00
2023-12-26T04:27:03.462Z,559.00
2023-12-26T04:28:03.533Z,558.00
2023-12-26T04:29:03.504Z,559.00
2023-12-26T04:30:03.589Z,557.00
2023-12-26T04:31:03.725Z,558.00
2023-12-26T04:32:10.969Z,565.00
2023-12-26T04:33:11.043Z,571.00
2023-12-26T04:34:11.084Z,572.00
2023-12-26T04:35:10.939Z,571.00
2023-12-26T04:36:11.015Z,571.00
2023-12-26T04:37:10.986Z,571.00
2023-12-26T04:38:10.949Z,571.00
2023-12-26T04:39:10.998Z,569.00
2023-12-26T04:40:10.978Z,566.00
2023-12-26T04:41:10.939Z,563.00
2023-12-26T04:42:11.002Z,560.00
2023-12-26T04:43:10.968Z,560.00
2023-12-26T04:44:10.976Z,561.00
2023-12-26T04:45:11.018Z,560.00
2023-12-26T04:46:10.963Z,558.00
2023-12-26T04:47:10.974Z,556.00
2023-12-26T04:48:11.078Z,555.00
2023-12-26T04:49:11.175Z,555.00
2023-12-26T04:50:11.014Z,555.00
2023-12-26T04:51:11.067Z,557.00
2023-12-26T04:52:11.119Z,557.00
2023-12-26T04:53:11.198Z,558.00
2023-12-26T04:54:11.327Z,558.00
2023-12-26T04:55:11.340Z,559.00
2023-12-26T04:56:11.416Z,558.00
2023-12-26T04:57:11.512Z,558.00
2023-12-26T04:58:11.536Z,559.00
2023-12-26T04:59:11.572Z,562.00
2023-12-26T05:00:11.704Z,563.00
2023-12-26T05:01:11.760Z,560.00
2023-12-26T05:02:11.761Z,560.00
2023-12-26T05:03:11.971Z,560.00
2023-12-26T05:04:11.916Z,561.00
2023-12-26T05:05:11.961Z,564.00
2023-12-26T05:06:12.079Z,565.00
2023-12-26T05:07:12.100Z,569.00
2023-12-26T05:08:12.218Z,573.00
2023-12-26T05:09:12.369Z,574.00
2023-12-26T05:10:12.301Z,573.00
2023-12-26T05:11:12.377Z,573.00
2023-12-26T05:12:12.513Z,571.00
2023-12-26T05:13:12.573Z,571.00
2023-12-26T05:14:12.596Z,568.00
2023-12-26T05:15:12.726Z,567.00
2023-12-26T05:16:12.716Z,569.00
2023-12-26T05:17:12.796Z,570.00
2023-12-26T05:18:12.941Z,570.00
2023-12-26T05:19:13.116Z,568.00
2023-12-26T05:20:21.742Z,567.00
2023-12-26T05:21:13.997Z,566.00
2023-12-26T05:22:12.978Z,566.00
2023-12-26T05:23:12.958Z,565.00
2023-12-26T05:24:13.057Z,565.00
2023-12-26T05:25:12.992Z,565.00
2023-12-26T05:26:13.730Z,567.00
2023-12-26T05:27:13.112Z,570.00
2023-12-26T05:28:13.000Z,566.00
2023-12-26T05:29:13.138Z,564.00
2023-12-26T05:30:13.206Z,565.00
2023-12-26T05:31:13.281Z,563.00
2023-12-26T05:32:13.327Z,562.00
2023-12-26T05:33:13.390Z,559.00
2023-12-26T05:34:13.693Z,557.00
2023-12-26T05:35:13.461Z,555.00
2023-12-26T05:36:13.552Z,556.00
2023-12-26T05:37:13.576Z,557.00
2023-12-26T05:38:13.651Z,558.00
2023-12-26T05:39:13.692Z,559.00
2023-12-26T05:40:13.762Z,561.00
2023-12-26T05:41:13.823Z,563.00
2023-12-26T05:42:13.979Z,563.00
2023-12-26T05:43:13.989Z,562.00
2023-12-26T05:44:14.033Z,561.00
2023-12-26T05:45:14.157Z,561.00
2023-12-26T05:46:14.149Z,562.00
2023-12-26T05:47:14.226Z,563.00
2023-12-26T05:48:14.503Z,562.00
2023-12-26T05:49:14.524Z,561.00
2023-12-26T05:50:14.482Z,560.00
2023-12-26T05:51:14.565Z,563.00
2023-12-26T05:52:14.575Z,567.00
2023-12-26T05:53:14.669Z,568.00
2023-12-26T05:54:14.758Z,572.00
2023-12-26T05:55:14.810Z,573.00
2023-12-26T05:56:14.787Z,573.00
2023-12-26T05:57:14.884Z,573.00
2023-12-26T05:58:14.865Z,574.00
2023-12-26T05:59:14.845Z,576.00
2023-12-26T06:00:14.942Z,576.00
2023-12-26T06:01:14.904Z,574.00
2023-12-26T06:02:14.867Z,574.00
2023-12-26T06:03:14.922Z,577.00
2023-12-26T06:04:15.171Z,579.00
2023-12-26T06:05:14.884Z,579.00
2023-12-26T06:06:15.178Z,580.00
2023-12-26T06:07:14.915Z,581.00
2023-12-26T06:08:14.976Z,580.00
2023-12-26T06:09:15.020Z,581.00
2023-12-26T06:10:14.996Z,581.00
2023-12-26T06:11:14.997Z,584.00
2023-12-26T06:12:15.085Z,588.00
2023-12-26T06:13:15.048Z,591.00
2023-12-26T06:14:15.108Z,591.00
2023-12-26T06:15:15.128Z,589.00
2023-12-26T06:16:15.124Z,588.00
2023-12-26T06:17:15.153Z,590.00
2023-12-26T06:18:15.241Z,589.00
2023-12-26T06:19:15.432Z,590.00
2023-12-26T06:20:15.237Z,591.00
2023-12-26T06:21:15.319Z,596.00
2023-12-26T06:22:15.245Z,596.00
2023-12-26T06:23:15.295Z,591.00
2023-12-26T06:24:15.668Z,593.00
2023-12-26T06:25:15.345Z,594.00
2023-12-26T06:26:15.407Z,594.00
2023-12-26T06:27:15.537Z,590.00
2023-12-26T06:28:15.432Z,589.00
2023-12-26T06:29:15.476Z,591.00
2023-12-26T06:30:15.534Z,592.00
2023-12-26T06:31:15.729Z,593.00
2023-12-26T06:32:15.545Z,594.00
2023-12-26T06:33:15.740Z,594.00
2023-12-26T06:34:15.656Z,594.00
2023-12-26T06:35:15.672Z,595.00
2023-12-26T06:36:15.721Z,598.00
2023-12-26T06:37:15.694Z,596.00
2023-12-26T06:38:15.734Z,598.00
2023-12-26T06:39:15.822Z,597.00
2023-12-26T06:40:15.823Z,599.00
2023-12-26T06:41:15.814Z,599.00
2023-12-26T06:42:15.911Z,598.00
2023-12-26T06:43:15.860Z,598.00
2023-12-26T06:44:15.885Z,600.00
2023-12-26T06:45:15.945Z,596.00
2023-12-26T06:46:15.960Z,600.00
2023-12-26T06:47:15.967Z,603.00
2023-12-26T06:48:16.141Z,600.00
2023-12-26T06:49:16.119Z,600.00
2023-12-26T06:50:16.049Z,601.00
2023-12-26T06:51:16.179Z,604.00
2023-12-26T06:52:16.117Z,603.00
2023-12-26T06:53:16.103Z,603.00
2023-12-26T06:54:16.228Z,601.00
2023-12-26T06:55:17.964Z,603.00
2023-12-26T06:56:16.181Z,607.00
2023-12-26T06:57:16.258Z,601.00
2023-12-26T06:58:16.180Z,596.00
2023-12-26T06:59:16.189Z,600.00
2023-12-26T07:00:16.249Z,600.00
2023-12-26T07:01:16.214Z,600.00
2023-12-26T07:02:16.704Z,599.00
2023-12-26T07:03:16.337Z,596.00
2023-12-26T07:04:16.249Z,598.00
2023-12-26T07:05:16.224Z,600.00
2023-12-26T07:06:16.221Z,603.00
2023-12-26T07:07:16.220Z,601.00
2023-12-26T07:08:16.207Z,598.00
2023-12-26T07:09:16.332Z,600.00
2023-12-26T07:10:16.218Z,601.00
2023-12-26T07:11:16.237Z,602.00
2023-12-26T07:12:16.288Z,608.00
2023-12-26T07:13:16.242Z,607.00
2023-12-26T07:14:16.255Z,609.00
2023-12-26T07:15:16.254Z,606.00
2023-12-26T07:16:16.193Z,608.00
2023-12-26T07:17:16.214Z,610.00
2023-12-26T07:18:16.324Z,610.00
2023-12-26T07:19:16.350Z,609.00
2023-12-26T07:20:16.227Z,610.00
2023-12-26T07:21:16.322Z,612.00
2023-12-26T07:22:16.250Z,613.00
2023-12-26T07:23:16.218Z,613.00
2023-12-26T07:24:16.420Z,608.00
2023-12-26T07:25:16.239Z,609.00
2023-12-26T07:26:16.232Z,609.00
2023-12-26T07:27:16.393Z,615.00
2023-12-26T07:28:16.244Z,615.00
2023-12-26T07:29:16.261Z,616.00
2023-12-26T07:30:16.356Z,616.00
2023-12-26T07:31:16.345Z,615.00
2023-12-26T07:32:16.282Z,613.00
2023-12-26T07:33:16.466Z,611.00
2023-12-26T07:34:16.338Z,612.00
2023-12-26T07:35:16.244Z,614.00
2023-12-26T07:36:16.356Z,617.00
2023-12-26T07:37:16.245Z,618.00
2023-12-26T07:38:16.243Z,617.00
2023-12-26T07:39:16.394Z,619.00
2023-12-26T07:40:16.268Z,620.00
2023-12-26T07:41:16.261Z,619.00
2023-12-26T07:42:16.388Z,618.00
2023-12-26T07:43:16.265Z,620.00
2023-12-26T07:44:16.328Z,620.00
2023-12-26T07:45:16.310Z,620.00
2023-12-26T07:46:16.282Z,616.00
2023-12-26T07:47:16.287Z,617.00
2023-12-26T07:48:16.526Z,617.00
2023-12-26T07:49:16.525Z,614.00
2023-12-26T07:50:16.451Z,612.00
2023-12-26T07:51:16.312Z,612.00
2023-12-26T07:52:16.289Z,617.00
2023-12-26T07:53:16.323Z,618.00
2023-12-26T07:54:16.366Z,620.00
2023-12-26T07:55:18.126Z,624.00
2023-12-26T07:56:16.300Z,623.00
2023-12-26T07:57:16.342Z,625.00
2023-12-26T07:58:16.312Z,623.00
2023-12-26T07:59:16.321Z,622.00
2023-12-26T08:00:16.420Z,620.00
2023-12-26T08:01:16.304Z,620.00
2023-12-26T08:02:16.296Z,620.00
2023-12-26T08:03:16.396Z,621.00
2023-12-26T08:04:16.356Z,619.00
2023-12-26T08:05:16.372Z,618.00
2023-12-26T08:06:16.435Z,617.00
2023-12-26T08:07:16.364Z,615.00
2023-12-26T08:08:16.390Z,612.00
2023-12-26T08:09:16.491Z,613.00
2023-12-26T08:10:16.409Z,609.00
2023-12-26T08:11:16.448Z,611.00
2023-12-26T08:12:16.479Z,610.00
2023-12-26T08:13:16.489Z,611.00
2023-12-26T08:14:16.509Z,610.00
2023-12-26T08:15:16.634Z,620.00
2023-12-26T08:16:16.568Z,620.00
2023-12-26T08:17:16.660Z,618.00
2023-12-26T08:18:16.763Z,619.00
2023-12-26T08:19:19.740Z,618.00
2023-12-26T08:20:16.617Z,622.00
2023-12-26T08:21:16.874Z,619.00
2023-12-26T08:22:16.640Z,619.00
2023-12-26T08:23:16.647Z,616.00
2023-12-26T08:24:16.742Z,617.00
2023-12-26T08:25:18.136Z,612.00
2023-12-26T08:26:16.671Z,612.00
2023-12-26T08:27:16.765Z,611.00
2023-12-26T08:28:16.643Z,613.00
2023-12-26T08:29:17.159Z,612.00
2023-12-26T08:30:16.719Z,614.00
2023-12-26T08:31:16.658Z,612.00
2023-12-26T08:32:16.669Z,609.00
2023-12-26T08:33:16.777Z,610.00
2023-12-26T08:34:16.722Z,610.00
2023-12-26T08:35:16.712Z,611.00
2023-12-26T08:36:16.673Z,609.00
2023-12-26T08:37:16.707Z,608.00
2023-12-26T08:38:16.665Z,609.00
2023-12-26T08:39:16.696Z,605.00
2023-12-26T08:40:16.641Z,606.00
2023-12-26T08:41:16.662Z,606.00
2023-12-26T08:42:16.734Z,610.00
2023-12-26T08:43:16.682Z,607.00
2023-12-26T08:44:16.683Z,605.00
2023-12-26T08:45:16.739Z,604.00
2023-12-26T08:46:16.672Z,604.00
2023-12-26T08:47:16.662Z,603.00
2023-12-26T08:48:16.818Z,606.00
2023-12-26T08:49:16.901Z,603.00
2023-12-26T08:50:16.729Z,602.00
2023-12-26T08:51:16.736Z,604.00
2023-12-26T08:52:16.690Z,605.00
2023-12-26T08:53:16.709Z,602.00
2023-12-26T08:54:16.713Z,603.00
2023-12-26T08:55:16.753Z,604.00
2023-12-26T08:56:16.732Z,602.00
2023-12-26T08:57:16.837Z,603.00
2023-12-26T08:58:16.705Z,605.00
2023-12-26T08:59:16.669Z,605.00
2023-12-26T09:00:16.729Z,604.00
2023-12-26T09:01:16.701Z,602.00
2023-12-26T09:02:16.690Z,603.00
2023-12-26T09:03:17.112Z,600.00
2023-12-26T09:04:16.778Z,597.00
2023-12-26T09:05:16.781Z,595.00
2023-12-26T09:06:16.780Z,590.00
2023-12-26T09:07:16.733Z,588.00
2023-12-26T09:08:16.694Z,588.00
2023-12-26T09:09:16.830Z,589.00
2023-12-26T09:10:16.702Z,589.00
2023-12-26T09:11:16.712Z,586.00
2023-12-26T09:12:16.799Z,586.00
2023-12-26T09:13:16.725Z,585.00
2023-12-26T09:14:16.735Z,584.00
2023-12-26T09:15:16.972Z,586.00
2023-12-26T09:16:16.748Z,586.00
2023-12-26T09:17:16.753Z,584.00
2023-12-26T09:18:16.972Z,584.00
2023-12-26T09:19:16.779Z,585.00
2023-12-26T09:20:16.726Z,586.00
2023-12-26T09:21:16.746Z,584.00
2023-12-26T09:22:16.733Z,583.00
2023-12-26T09:23:16.741Z,584.00
2023-12-26T09:24:16.820Z,583.00
2023-12-26T09:25:16.757Z,584.00
2023-12-26T09:26:16.766Z,583.00
2023-12-26T09:27:16.816Z,584.00
2023-12-26T09:28:16.776Z,587.00
2023-12-26T09:29:16.738Z,589.00
2023-12-26T09:30:16.819Z,591.00
2023-12-26T09:31:16.859Z,585.00
2023-12-26T09:32:16.758Z,584.00
2023-12-26T09:33:16.872Z,583.00
2023-12-26T09:34:16.955Z,582.00
2023-12-26T09:35:16.789Z,580.00
2023-12-26T09:36:16.815Z,580.00
2023-12-26T09:37:16.831Z,582.00
2023-12-26T09:38:16.774Z,583.00
2023-12-26T09:39:16.820Z,585.00
2023-12-26T09:40:16.745Z,583.00
2023-12-26T09:41:16.807Z,581.00
2023-12-26T09:42:16.830Z,582.00
2023-12-26T09:43:16.819Z,584.00
2023-12-26T09:44:16.880Z,585.00
2023-12-26T09:45:16.914Z,587.00
2023-12-26T09:46:16.889Z,585.00
2023-12-26T09:47:16.956Z,579.00
2023-12-26T09:48:17.356Z,577.00
2023-12-26T09:49:17.334Z,576.00
2023-12-26T09:50:17.151Z,578.00
2023-12-26T09:51:17.132Z,580.00
2023-12-26T09:52:17.068Z,579.00
2023-12-26T09:53:17.152Z,585.00
2023-12-26T09:54:17.128Z,585.00
2023-12-26T09:55:17.104Z,588.00
2023-12-26T09:56:17.140Z,591.00
2023-12-26T09:57:17.261Z,593.00
2023-12-26T09:58:17.160Z,591.00
2023-12-26T09:59:17.190Z,592.00
2023-12-26T10:00:17.301Z,589.00
2023-12-26T10:01:17.315Z,592.00
2023-12-26T10:02:17.266Z,592.00
2023-12-26T10:03:17.360Z,594.00
2023-12-26T10:04:18.192Z,595.00
2023-12-26T10:05:17.401Z,595.00
2023-12-26T10:06:17.421Z,592.00
2023-12-26T10:07:17.393Z,593.00
2023-12-26T10:08:17.418Z,594.00
2023-12-26T10:09:17.475Z,592.00
2023-12-26T10:10:17.479Z,594.00
2023-12-26T10:11:17.477Z,598.00
2023-12-26T10:12:17.568Z,601.00
2023-12-26T10:13:17.549Z,597.00
2023-12-26T10:14:17.539Z,602.00
2023-12-26T10:15:17.645Z,605.00
2023-12-26T10:16:17.618Z,610.00
2023-12-26T10:17:17.635Z,610.00
2023-12-26T10:18:17.741Z,611.00
2023-12-26T10:19:17.788Z,610.00
2023-12-26T10:20:17.710Z,610.00
2023-12-26T10:21:17.784Z,611.00
2023-12-26T10:22:17.768Z,611.00
2023-12-26T10:23:17.769Z,612.00
2023-12-26T10:24:17.858Z,612.00
2023-12-26T10:25:17.822Z,613.00
2023-12-26T10:26:17.785Z,614.00
2023-12-26T10:27:17.926Z,613.00
2023-12-26T10:28:17.853Z,613.00
2023-12-26T10:29:17.843Z,617.00
2023-12-26T10:30:17.974Z,619.00
2023-12-26T10:31:17.951Z,618.00
2023-12-26T10:32:17.882Z,618.00
2023-12-26T10:33:17.960Z,621.00
2023-12-26T10:34:18.348Z,623.00
2023-12-26T10:35:17.943Z,624.00
2023-12-26T10:36:17.974Z,625.00
2023-12-26T10:37:17.952Z,624.00
2023-12-26T10:38:17.942Z,622.00
2023-12-26T10:39:18.057Z,621.00
2023-12-26T10:40:18.003Z,622.00
2023-12-26T10:41:18.004Z,623.00
2023-12-26T10:42:18.057Z,620.00
2023-12-26T10:43:18.010Z,618.00
2023-12-26T10:44:18.026Z,618.00
2023-12-26T10:45:18.120Z,619.00
2023-12-26T10:46:18.073Z,618.00
2023-12-26T10:47:18.087Z,621.00
2023-12-26T10:48:18.264Z,621.00
2023-12-26T10:49:18.223Z,615.00
2023-12-26T10:50:18.129Z,614.00
2023-12-26T10:51:18.209Z,615.00
2023-12-26T10:52:18.228Z,615.00
2023-12-26T10:53:18.244Z,617.00
2023-12-26T10:54:18.260Z,619.00
2023-12-26T10:55:18.233Z,621.00
2023-12-26T10:56:18.224Z,619.00
2023-12-26T10:57:18.312Z,618.00
2023-12-26T10:58:18.253Z,618.00
2023-12-26T10:59:18.271Z,615.00
2023-12-26T11:00:18.501Z,617.00
2023-12-26T11:01:18.412Z,616.00
2023-12-26T11:02:18.293Z,614.00
2023-12-26T11:03:18.370Z,614.00
2023-12-26T11:04:18.369Z,612.00
2023-12-26T11:05:18.355Z,611.00
2023-12-26T11:06:20.849Z,609.00
2023-12-26T11:07:18.346Z,606.00
2023-12-26T11:08:18.409Z,605.00
2023-12-26T11:09:18.520Z,605.00
2023-12-26T11:10:18.370Z,603.00
2023-12-26T11:11:18.399Z,599.00
2023-12-26T11:12:18.403Z,602.00
2023-12-26T11:13:18.348Z,598.00
2023-12-26T11:14:18.388Z,600.00
2023-12-26T11:15:18.414Z,599.00
2023-12-26T11:16:18.351Z,600.00
2023-12-26T11:17:18.405Z,597.00
2023-12-26T11:18:18.612Z,595.00
2023-12-26T11:19:18.517Z,596.00
2023-12-26T11:20:18.419Z,596.00
2023-12-26T11:21:18.501Z,599.00
2023-12-26T11:22:18.418Z,601.00
2023-12-26T11:23:18.423Z,600.00
2023-12-26T11:24:18.442Z,599.00
2023-12-26T11:25:18.407Z,598.00
2023-12-26T11:26:18.378Z,594.00
2023-12-26T11:27:18.455Z,594.00
2023-12-26T11:28:18.400Z,593.00
2023-12-26T11:29:18.381Z,592.00
2023-12-26T11:30:18.479Z,590.00
2023-12-26T11:31:18.530Z,591.00
2023-12-26T11:32:18.476Z,587.00
2023-12-26T11:33:18.529Z,584.00
2023-12-26T11:34:18.513Z,580.00
2023-12-26T11:35:18.397Z,580.00
2023-12-26T11:36:18.451Z,579.00
2023-12-26T11:37:18.427Z,578.00
2023-12-26T11:38:18.375Z,576.00
2023-12-26T11:39:18.889Z,575.00
2023-12-26T11:40:18.393Z,575.00
2023-12-26T11:41:18.382Z,571.00
2023-12-26T11:42:18.451Z,571.00
2023-12-26T11:43:18.399Z,573.00
2023-12-26T11:44:18.415Z,572.00
2023-12-26T11:45:18.506Z,571.00
2023-12-26T11:46:18.398Z,571.00
2023-12-26T11:47:18.461Z,569.00
2023-12-26T11:48:18.648Z,573.00
2023-12-26T11:49:18.532Z,574.00
2023-12-26T11:50:18.408Z,573.00
2023-12-26T11:51:18.471Z,572.00
2023-12-26T11:52:18.457Z,571.00
2023-12-26T11:53:18.430Z,569.00
2023-12-26T11:54:18.450Z,568.00
2023-12-26T11:55:18.445Z,570.00
2023-12-26T11:56:18.447Z,574.00
2023-12-26T11:57:18.453Z,575.00
2023-12-26T11:58:18.445Z,573.00
2023-12-26T11:59:18.467Z,572.00
2023-12-26T12:00:18.538Z,568.00
2023-12-26T12:01:18.553Z,568.00
2023-12-26T12:02:18.488Z,568.00
2023-12-26T12:03:18.481Z,564.00
2023-12-26T12:04:18.830Z,565.00
2023-12-26T12:05:18.492Z,563.00
2023-12-26T12:06:18.534Z,564.00
2023-12-26T12:07:18.475Z,562.00
2023-12-26T12:08:18.476Z,559.00
2023-12-26T12:09:18.495Z,557.00
2023-12-26T12:10:18.538Z,560.00
2023-12-26T12:11:18.475Z,560.00
2023-12-26T12:12:18.512Z,557.00
2023-12-26T12:13:18.456Z,554.00
2023-12-26T12:14:18.483Z,554.00
2023-12-26T12:15:18.549Z,555.00
2023-12-26T12:16:18.485Z,551.00
2023-12-26T12:17:18.498Z,553.00
2023-12-26T12:18:18.676Z,555.00
2023-12-26T12:19:18.581Z,555.00
2023-12-26T12:20:18.522Z,556.00
2023-12-26T12:21:18.542Z,558.00
2023-12-26T12:22:18.477Z,554.00
2023-12-26T12:23:18.535Z,549.00
2023-12-26T12:24:18.566Z,551.00
2023-12-26T12:25:18.483Z,550.00
2023-12-26T12:26:18.488Z,555.00
2023-12-26T12:27:18.542Z,556.00
2023-12-26T12:28:18.511Z,553.00
2023-12-26T12:29:18.517Z,552.00
2023-12-26T12:30:18.592Z,551.00